sensor_id;sensor_type;location;lat;lon;timestamp;P1;durP1;ratioP1;P2;durP2;ratioP2
14472;SDS011;7322;50.872;4.386;2024-02-21T00:01:07;6.90;;;3.80;;
14472;SDS011;7322;50.872;4.386;2024-02-21T00:03:34;6.10;;;3.13;;
14472;SDS011;7322;50.872;4.386;2024-02-21T00:06:01;5.57;;;3.30;;
14472;SDS011;7322;50.872;4.386;2024-02-21T00:08:28;4.60;;;2.90;;
14472;SDS011;7322;50.872;4.386;2024-02-21T00:10:55;5.50;;;3.53;;
14472;SDS011;7322;50.872;4.386;2024-02-21T00:13:22;5.43;;;3.30;;
14472;SDS011;7322;50.872;4.386;2024-02-21T00:15:49;4.87;;;3.40;;
14472;SDS011;7322;50.872;4.386;2024-02-21T00:18:17;5.40;;;3.80;;
14472;SDS011;7322;50.872;4.386;2024-02-21T00:20:44;5.17;;;3.30;;
14472;SDS011;7322;50.872;4.386;2024-02-21T00:23:12;6.23;;;3.30;;
14472;SDS011;7322;50.872;4.386;2024-02-21T00:25:39;5.70;;;3.50;;
14472;SDS011;7322;50.872;4.386;2024-02-21T00:28:06;7.37;;;3.57;;
14472;SDS011;7322;50.872;4.386;2024-02-21T00:30:33;7.63;;;3.43;;
14472;SDS011;7322;50.872;4.386;2024-02-21T00:33:00;6.03;;;3.27;;
14472;SDS011;7322;50.872;4.386;2024-02-21T00:35:29;4.93;;;3.17;;
14472;SDS011;7322;50.872;4.386;2024-02-21T00:37:57;5.70;;;3.30;;
14472;SDS011;7322;50.872;4.386;2024-02-21T00:40:24;4.57;;;3.10;;
14472;SDS011;7322;50.872;4.386;2024-02-21T00:42:51;6.80;;;3.70;;
14472;SDS011;7322;50.872;4.386;2024-02-21T00:45:18;5.10;;;3.07;;
14472;SDS011;7322;50.872;4.386;2024-02-21T00:47:45;7.80;;;3.47;;
14472;SDS011;7322;50.872;4.386;2024-02-21T00:50:12;5.93;;;3.33;;
14472;SDS011;7322;50.872;4.386;2024-02-21T00:52:41;5.30;;;3.30;;
14472;SDS011;7322;50.872;4.386;2024-02-21T00:55:08;6.03;;;3.20;;
14472;SDS011;7322;50.872;4.386;2024-02-21T00:57:35;5.50;;;3.00;;
14472;SDS011;7322;50.872;4.386;2024-02-21T01:00:03;5.10;;;3.27;;
14472;SDS011;7322;50.872;4.386;2024-02-21T01:02:32;5.43;;;2.83;;
14472;SDS011;7322;50.872;4.386;2024-02-21T01:05:00;4.43;;;3.30;;
14472;SDS011;7322;50.872;4.386;2024-02-21T01:07:27;4.03;;;2.90;;
14472;SDS011;7322;50.872;4.386;2024-02-21T01:09:55;4.57;;;3.23;;
14472;SDS011;7322;50.872;4.386;2024-02-21T01:12:22;5.80;;;2.90;;
14472;SDS011;7322;50.872;4.386;2024-02-21T01:14:49;3.83;;;2.80;;
14472;SDS011;7322;50.872;4.386;2024-02-21T01:17:16;5.13;;;3.00;;
14472;SDS011;7322;50.872;4.386;2024-02-21T01:19:43;5.87;;;3.13;;
14472;SDS011;7322;50.872;4.386;2024-02-21T01:22:12;5.67;;;2.83;;
14472;SDS011;7322;50.872;4.386;2024-02-21T01:24:40;3.83;;;2.80;;
14472;SDS011;7322;50.872;4.386;2024-02-21T01:27:08;5.97;;;3.00;;
14472;SDS011;7322;50.872;4.386;2024-02-21T01:29:35;3.63;;;2.40;;
14472;SDS011;7322;50.872;4.386;2024-02-21T01:32:02;3.50;;;2.80;;
14472;SDS011;7322;50.872;4.386;2024-02-21T01:34:30;3.43;;;2.87;;
14472;SDS011;7322;50.872;4.386;2024-02-21T01:36:57;5.50;;;2.87;;
14472;SDS011;7322;50.872;4.386;2024-02-21T01:39:24;5.93;;;2.87;;
14472;SDS011;7322;50.872;4.386;2024-02-21T01:41:51;3.53;;;2.77;;
14472;SDS011;7322;50.872;4.386;2024-02-21T01:44:20;4.90;;;3.20;;
14472;SDS011;7322;50.872;4.386;2024-02-21T01:46:47;4.30;;;2.30;;
14472;SDS011;7322;50.872;4.386;2024-02-21T01:49:14;4.80;;;2.90;;
14472;SDS011;7322;50.872;4.386;2024-02-21T01:51:41;3.97;;;2.83;;
14472;SDS011;7322;50.872;4.386;2024-02-21T01:54:09;5.73;;;2.83;;
14472;SDS011;7322;50.872;4.386;2024-02-21T01:56:37;5.87;;;2.87;;
14472;SDS011;7322;50.872;4.386;2024-02-21T01:59:04;3.97;;;2.50;;
14472;SDS011;7322;50.872;4.386;2024-02-21T02:01:32;4.43;;;2.43;;
14472;SDS011;7322;50.872;4.386;2024-02-21T02:04:00;4.03;;;2.63;;
14472;SDS011;7322;50.872;4.386;2024-02-21T02:06:30;4.63;;;2.73;;
14472;SDS011;7322;50.872;4.386;2024-02-21T02:08:57;4.13;;;2.63;;
14472;SDS011;7322;50.872;4.386;2024-02-21T02:11:24;5.03;;;2.87;;
14472;SDS011;7322;50.872;4.386;2024-02-21T02:13:51;5.27;;;2.97;;
14472;SDS011;7322;50.872;4.386;2024-02-21T02:16:18;4.13;;;2.77;;
14472;SDS011;7322;50.872;4.386;2024-02-21T02:18:46;3.53;;;2.40;;
14472;SDS011;7322;50.872;4.386;2024-02-21T02:21:15;3.87;;;2.90;;
14472;SDS011;7322;50.872;4.386;2024-02-21T02:23:54;3.87;;;2.40;;
14472;SDS011;7322;50.872;4.386;2024-02-21T02:26:22;3.97;;;2.47;;
14472;SDS011;7322;50.872;4.386;2024-02-21T02:28:49;5.20;;;2.63;;
14472;SDS011;7322;50.872;4.386;2024-02-21T02:31:16;3.90;;;2.70;;
14472;SDS011;7322;50.872;4.386;2024-02-21T02:33:43;4.13;;;2.70;;
14472;SDS011;7322;50.872;4.386;2024-02-21T02:36:10;3.47;;;2.33;;
14472;SDS011;7322;50.872;4.386;2024-02-21T02:38:37;4.00;;;2.70;;
14472;SDS011;7322;50.872;4.386;2024-02-21T02:41:05;3.67;;;2.50;;
14472;SDS011;7322;50.872;4.386;2024-02-21T02:43:32;3.30;;;2.43;;
14472;SDS011;7322;50.872;4.386;2024-02-21T02:45:59;2.60;;;2.20;;
14472;SDS011;7322;50.872;4.386;2024-02-21T02:48:26;3.73;;;2.20;;
14472;SDS011;7322;50.872;4.386;2024-02-21T02:50:53;4.17;;;2.60;;
14472;SDS011;7322;50.872;4.386;2024-02-21T02:53:20;4.10;;;2.53;;
14472;SDS011;7322;50.872;4.386;2024-02-21T02:55:47;3.67;;;2.33;;
14472;SDS011;7322;50.872;4.386;2024-02-21T02:58:16;3.83;;;2.60;;
14472;SDS011;7322;50.872;4.386;2024-02-21T03:00:44;4.57;;;2.60;;
14472;SDS011;7322;50.872;4.386;2024-02-21T03:03:11;4.10;;;2.43;;
14472;SDS011;7322;50.872;4.386;2024-02-21T03:05:38;5.47;;;2.57;;
14472;SDS011;7322;50.872;4.386;2024-02-21T03:08:05;3.97;;;2.80;;
14472;SDS011;7322;50.872;4.386;2024-02-21T03:10:33;4.10;;;2.43;;
14472;SDS011;7322;50.872;4.386;2024-02-21T03:13:00;4.20;;;2.70;;
14472;SDS011;7322;50.872;4.386;2024-02-21T03:15:29;4.87;;;2.63;;
14472;SDS011;7322;50.872;4.386;2024-02-21T03:17:55;4.87;;;2.40;;
14472;SDS011;7322;50.872;4.386;2024-02-21T03:20:22;4.90;;;2.47;;
14472;SDS011;7322;50.872;4.386;2024-02-21T03:22:49;4.30;;;2.80;;
14472;SDS011;7322;50.872;4.386;2024-02-21T03:25:16;4.03;;;2.60;;
14472;SDS011;7322;50.872;4.386;2024-02-21T03:27:44;3.17;;;2.30;;
14472;SDS011;7322;50.872;4.386;2024-02-21T03:30:12;3.90;;;2.53;;
14472;SDS011;7322;50.872;4.386;2024-02-21T03:32:41;3.13;;;2.33;;
14472;SDS011;7322;50.872;4.386;2024-02-21T03:35:08;5.13;;;2.60;;
14472;SDS011;7322;50.872;4.386;2024-02-21T03:37:35;5.00;;;2.50;;
14472;SDS011;7322;50.872;4.386;2024-02-21T03:40:02;2.90;;;2.40;;
14472;SDS011;7322;50.872;4.386;2024-02-21T03:42:32;4.40;;;2.50;;
14472;SDS011;7322;50.872;4.386;2024-02-21T03:44:59;3.73;;;2.50;;
14472;SDS011;7322;50.872;4.386;2024-02-21T03:47:26;5.13;;;2.70;;
14472;SDS011;7322;50.872;4.386;2024-02-21T03:49:55;4.17;;;2.50;;
14472;SDS011;7322;50.872;4.386;2024-02-21T03:52:23;3.33;;;2.33;;
14472;SDS011;7322;50.872;4.386;2024-02-21T03:54:50;3.53;;;2.27;;
14472;SDS011;7322;50.872;4.386;2024-02-21T03:57:17;3.27;;;2.20;;
14472;SDS011;7322;50.872;4.386;2024-02-21T03:59:45;4.13;;;2.30;;
14472;SDS011;7322;50.872;4.386;2024-02-21T04:02:12;4.10;;;2.43;;
14472;SDS011;7322;50.872;4.386;2024-02-21T04:04:42;4.03;;;2.17;;
14472;SDS011;7322;50.872;4.386;2024-02-21T04:07:12;3.93;;;2.40;;
14472;SDS011;7322;50.872;4.386;2024-02-21T04:09:39;4.77;;;2.43;;
14472;SDS011;7322;50.872;4.386;2024-02-21T04:12:07;3.70;;;2.07;;
14472;SDS011;7322;50.872;4.386;2024-02-21T04:14:35;3.03;;;1.73;;
14472;SDS011;7322;50.872;4.386;2024-02-21T04:17:02;4.10;;;2.43;;
14472;SDS011;7322;50.872;4.386;2024-02-21T04:19:30;5.17;;;2.40;;
14472;SDS011;7322;50.872;4.386;2024-02-21T04:21:58;3.20;;;2.20;;
14472;SDS011;7322;50.872;4.386;2024-02-21T04:24:27;4.20;;;2.30;;
14472;SDS011;7322;50.872;4.386;2024-02-21T04:26:54;3.10;;;2.20;;
14472;SDS011;7322;50.872;4.386;2024-02-21T04:29:21;3.57;;;2.30;;
14472;SDS011;7322;50.872;4.386;2024-02-21T04:31:48;3.90;;;2.10;;
14472;SDS011;7322;50.872;4.386;2024-02-21T04:34:15;3.60;;;2.47;;
14472;SDS011;7322;50.872;4.386;2024-02-21T04:36:42;3.13;;;2.03;;
14472;SDS011;7322;50.872;4.386;2024-02-21T04:39:09;3.00;;;2.00;;
14472;SDS011;7322;50.872;4.386;2024-02-21T04:41:39;3.67;;;2.13;;
14472;SDS011;7322;50.872;4.386;2024-02-21T04:44:06;3.50;;;2.30;;
14472;SDS011;7322;50.872;4.386;2024-02-21T04:46:34;3.03;;;2.20;;
14472;SDS011;7322;50.872;4.386;2024-02-21T04:49:01;3.87;;;2.20;;
14472;SDS011;7322;50.872;4.386;2024-02-21T04:51:34;3.43;;;2.20;;
14472;SDS011;7322;50.872;4.386;2024-02-21T04:54:01;3.97;;;2.43;;
14472;SDS011;7322;50.872;4.386;2024-02-21T04:56:28;4.00;;;2.50;;
14472;SDS011;7322;50.872;4.386;2024-02-21T04:58:57;3.70;;;2.40;;
14472;SDS011;7322;50.872;4.386;2024-02-21T05:01:24;3.10;;;2.00;;
14472;SDS011;7322;50.872;4.386;2024-02-21T05:03:53;3.43;;;2.43;;
14472;SDS011;7322;50.872;4.386;2024-02-21T05:06:20;5.10;;;2.40;;
14472;SDS011;7322;50.872;4.386;2024-02-21T05:08:47;4.10;;;2.10;;
14472;SDS011;7322;50.872;4.386;2024-02-21T05:11:14;3.40;;;2.20;;
14472;SDS011;7322;50.872;4.386;2024-02-21T05:13:41;4.13;;;2.40;;
14472;SDS011;7322;50.872;4.386;2024-02-21T05:16:09;3.73;;;2.00;;
14472;SDS011;7322;50.872;4.386;2024-02-21T05:18:36;4.00;;;2.03;;
14472;SDS011;7322;50.872;4.386;2024-02-21T05:21:03;3.17;;;2.23;;
14472;SDS011;7322;50.872;4.386;2024-02-21T05:23:30;4.20;;;2.50;;
14472;SDS011;7322;50.872;4.386;2024-02-21T05:26:02;2.60;;;2.00;;
14472;SDS011;7322;50.872;4.386;2024-02-21T05:28:29;6.53;;;2.33;;
14472;SDS011;7322;50.872;4.386;2024-02-21T05:30:56;3.17;;;2.50;;
14472;SDS011;7322;50.872;4.386;2024-02-21T05:33:25;3.77;;;2.50;;
14472;SDS011;7322;50.872;4.386;2024-02-21T05:35:52;5.60;;;2.57;;
14472;SDS011;7322;50.872;4.386;2024-02-21T05:38:19;3.67;;;2.20;;
14472;SDS011;7322;50.872;4.386;2024-02-21T05:40:46;4.80;;;2.30;;
14472;SDS011;7322;50.872;4.386;2024-02-21T05:43:13;3.77;;;2.20;;
14472;SDS011;7322;50.872;4.386;2024-02-21T05:45:40;5.60;;;2.50;;
14472;SDS011;7322;50.872;4.386;2024-02-21T05:48:07;4.27;;;2.47;;
14472;SDS011;7322;50.872;4.386;2024-02-21T05:50:36;3.83;;;2.33;;
14472;SDS011;7322;50.872;4.386;2024-02-21T05:53:04;3.37;;;2.40;;
14472;SDS011;7322;50.872;4.386;2024-02-21T05:55:31;3.60;;;2.30;;
14472;SDS011;7322;50.872;4.386;2024-02-21T05:57:58;4.10;;;2.33;;
14472;SDS011;7322;50.872;4.386;2024-02-21T06:00:25;3.33;;;2.07;;
14472;SDS011;7322;50.872;4.386;2024-02-21T06:02:52;4.57;;;2.50;;
14472;SDS011;7322;50.872;4.386;2024-02-21T06:05:19;3.90;;;2.57;;
14472;SDS011;7322;50.872;4.386;2024-02-21T06:07:47;4.70;;;2.40;;
14472;SDS011;7322;50.872;4.386;2024-02-21T06:10:14;3.93;;;2.23;;
14472;SDS011;7322;50.872;4.386;2024-02-21T06:12:42;2.87;;;2.20;;
14472;SDS011;7322;50.872;4.386;2024-02-21T06:15:09;4.20;;;2.57;;
14472;SDS011;7322;50.872;4.386;2024-02-21T06:17:36;4.03;;;2.43;;
14472;SDS011;7322;50.872;4.386;2024-02-21T06:20:03;3.90;;;2.30;;
14472;SDS011;7322;50.872;4.386;2024-02-21T06:22:32;3.13;;;2.27;;
14472;SDS011;7322;50.872;4.386;2024-02-21T06:25:01;5.63;;;2.53;;
14472;SDS011;7322;50.872;4.386;2024-02-21T06:27:28;4.27;;;2.37;;
14472;SDS011;7322;50.872;4.386;2024-02-21T06:29:55;4.47;;;2.10;;
14472;SDS011;7322;50.872;4.386;2024-02-21T06:32:22;4.77;;;2.23;;
14472;SDS011;7322;50.872;4.386;2024-02-21T06:34:49;4.00;;;2.50;;
14472;SDS011;7322;50.872;4.386;2024-02-21T06:37:16;2.87;;;2.20;;
14472;SDS011;7322;50.872;4.386;2024-02-21T06:39:43;3.93;;;2.30;;
14472;SDS011;7322;50.872;4.386;2024-02-21T06:42:12;4.53;;;2.00;;
14472;SDS011;7322;50.872;4.386;2024-02-21T06:44:39;5.63;;;2.63;;
14472;SDS011;7322;50.872;4.386;2024-02-21T06:47:06;4.23;;;2.43;;
14472;SDS011;7322;50.872;4.386;2024-02-21T06:49:33;3.30;;;2.23;;
14472;SDS011;7322;50.872;4.386;2024-02-21T06:52:04;4.63;;;2.40;;
14472;SDS011;7322;50.872;4.386;2024-02-21T06:54:31;5.80;;;2.50;;
14472;SDS011;7322;50.872;4.386;2024-02-21T06:56:58;4.73;;;2.10;;
14472;SDS011;7322;50.872;4.386;2024-02-21T07:01:57;4.70;;;2.07;;
14472;SDS011;7322;50.872;4.386;2024-02-21T07:04:34;5.17;;;2.37;;
14472;SDS011;7322;50.872;4.386;2024-02-21T07:07:09;4.33;;;2.40;;
14472;SDS011;7322;50.872;4.386;2024-02-21T07:09:46;8.30;;;2.60;;
14472;SDS011;7322;50.872;4.386;2024-02-21T07:12:14;8.83;;;3.13;;
14472;SDS011;7322;50.872;4.386;2024-02-21T07:14:44;6.63;;;2.90;;
14472;SDS011;7322;50.872;4.386;2024-02-21T07:17:22;9.03;;;3.40;;
14472;SDS011;7322;50.872;4.386;2024-02-21T07:19:49;8.53;;;3.30;;
14472;SDS011;7322;50.872;4.386;2024-02-21T07:22:16;11.60;;;3.23;;
14472;SDS011;7322;50.872;4.386;2024-02-21T07:24:43;6.73;;;3.40;;
14472;SDS011;7322;50.872;4.386;2024-02-21T07:27:10;7.10;;;2.70;;
14472;SDS011;7322;50.872;4.386;2024-02-21T07:29:39;10.20;;;3.40;;
14472;SDS011;7322;50.872;4.386;2024-02-21T07:32:08;6.63;;;3.13;;
14472;SDS011;7322;50.872;4.386;2024-02-21T07:34:35;9.20;;;3.10;;
14472;SDS011;7322;50.872;4.386;2024-02-21T07:37:02;5.73;;;3.10;;
14472;SDS011;7322;50.872;4.386;2024-02-21T07:39:29;6.73;;;3.70;;
14472;SDS011;7322;50.872;4.386;2024-02-21T07:41:56;7.47;;;3.50;;
14472;SDS011;7322;50.872;4.386;2024-02-21T07:44:25;8.63;;;3.10;;
14472;SDS011;7322;50.872;4.386;2024-02-21T07:46:53;7.90;;;3.27;;
14472;SDS011;7322;50.872;4.386;2024-02-21T07:49:23;7.30;;;3.50;;
14472;SDS011;7322;50.872;4.386;2024-02-21T07:51:51;8.53;;;3.20;;
14472;SDS011;7322;50.872;4.386;2024-02-21T07:54:18;10.20;;;3.40;;
14472;SDS011;7322;50.872;4.386;2024-02-21T07:56:52;7.67;;;3.37;;
14472;SDS011;7322;50.872;4.386;2024-02-21T07:59:19;7.53;;;3.50;;
14472;SDS011;7322;50.872;4.386;2024-02-21T08:01:49;8.20;;;3.43;;
14472;SDS011;7322;50.872;4.386;2024-02-21T08:04:17;5.63;;;2.97;;
14472;SDS011;7322;50.872;4.386;2024-02-21T08:06:45;7.17;;;3.30;;
14472;SDS011;7322;50.872;4.386;2024-02-21T08:09:13;5.93;;;3.20;;
14472;SDS011;7322;50.872;4.386;2024-02-21T08:11:43;5.40;;;3.40;;
14472;SDS011;7322;50.872;4.386;2024-02-21T08:14:11;10.97;;;3.33;;
14472;SDS011;7322;50.872;4.386;2024-02-21T08:16:40;10.47;;;3.03;;
14472;SDS011;7322;50.872;4.386;2024-02-21T08:19:07;10.70;;;3.07;;
14472;SDS011;7322;50.872;4.386;2024-02-21T08:21:36;7.97;;;3.63;;
14472;SDS011;7322;50.872;4.386;2024-02-21T08:24:05;5.93;;;3.10;;
14472;SDS011;7322;50.872;4.386;2024-02-21T08:26:32;5.27;;;2.90;;
14472;SDS011;7322;50.872;4.386;2024-02-21T08:29:01;6.23;;;2.93;;
14472;SDS011;7322;50.872;4.386;2024-02-21T08:31:28;6.53;;;3.00;;
14472;SDS011;7322;50.872;4.386;2024-02-21T08:33:57;5.10;;;2.80;;
14472;SDS011;7322;50.872;4.386;2024-02-21T08:36:27;7.40;;;3.00;;
14472;SDS011;7322;50.872;4.386;2024-02-21T08:38:55;6.67;;;2.93;;
14472;SDS011;7322;50.872;4.386;2024-02-21T08:41:24;6.23;;;3.10;;
14472;SDS011;7322;50.872;4.386;2024-02-21T08:43:51;6.10;;;2.73;;
14472;SDS011;7322;50.872;4.386;2024-02-21T08:46:19;6.57;;;3.00;;
14472;SDS011;7322;50.872;4.386;2024-02-21T08:48:46;6.53;;;2.63;;
14472;SDS011;7322;50.872;4.386;2024-02-21T08:51:14;4.73;;;2.77;;
14472;SDS011;7322;50.872;4.386;2024-02-21T08:53:41;6.73;;;3.00;;
14472;SDS011;7322;50.872;4.386;2024-02-21T08:56:08;4.77;;;3.10;;
14472;SDS011;7322;50.872;4.386;2024-02-21T08:58:37;4.03;;;2.80;;
14472;SDS011;7322;50.872;4.386;2024-02-21T09:01:05;5.67;;;3.03;;
14472;SDS011;7322;50.872;4.386;2024-02-21T09:03:42;4.30;;;2.63;;
14472;SDS011;7322;50.872;4.386;2024-02-21T09:06:11;7.07;;;2.90;;
14472;SDS011;7322;50.872;4.386;2024-02-21T09:08:56;7.37;;;2.77;;
14472;SDS011;7322;50.872;4.386;2024-02-21T09:14:27;4.33;;;2.60;;
14472;SDS011;7322;50.872;4.386;2024-02-21T09:16:55;3.60;;;2.50;;
14472;SDS011;7322;50.872;4.386;2024-02-21T09:19:28;4.87;;;2.90;;
14472;SDS011;7322;50.872;4.386;2024-02-21T09:22:04;5.27;;;2.63;;
14472;SDS011;7322;50.872;4.386;2024-02-21T09:24:33;5.43;;;2.80;;
14472;SDS011;7322;50.872;4.386;2024-02-21T09:27:06;4.30;;;2.47;;
14472;SDS011;7322;50.872;4.386;2024-02-21T09:29:43;4.10;;;2.50;;
14472;SDS011;7322;50.872;4.386;2024-02-21T09:32:11;3.77;;;2.90;;
14472;SDS011;7322;50.872;4.386;2024-02-21T09:34:56;5.30;;;2.80;;
14472;SDS011;7322;50.872;4.386;2024-02-21T09:37:30;6.53;;;2.77;;
14472;SDS011;7322;50.872;4.386;2024-02-21T09:39:59;5.10;;;2.53;;
14472;SDS011;7322;50.872;4.386;2024-02-21T09:42:31;6.73;;;2.60;;
14472;SDS011;7322;50.872;4.386;2024-02-21T09:45:15;3.10;;;2.57;;
14472;SDS011;7322;50.872;4.386;2024-02-21T09:51:04;4.80;;;2.60;;
14472;SDS011;7322;50.872;4.386;2024-02-21T09:53:34;3.50;;;2.47;;
14472;SDS011;7322;50.872;4.386;2024-02-21T09:56:11;3.90;;;2.40;;
14472;SDS011;7322;50.872;4.386;2024-02-21T10:04:31;4.20;;;2.43;;
14472;SDS011;7322;50.872;4.386;2024-02-21T10:10:05;2.93;;;2.13;;
14472;SDS011;7322;50.872;4.386;2024-02-21T10:12:47;4.20;;;2.30;;
14472;SDS011;7322;50.872;4.386;2024-02-21T10:15:20;4.70;;;2.37;;
14472;SDS011;7322;50.872;4.386;2024-02-21T10:18:07;3.70;;;2.50;;
14472;SDS011;7322;50.872;4.386;2024-02-21T10:23:42;3.40;;;2.30;;
14472;SDS011;7322;50.872;4.386;2024-02-21T10:31:50;2.77;;;2.13;;
14472;SDS011;7322;50.872;4.386;2024-02-21T10:34:24;2.83;;;2.20;;
14472;SDS011;7322;50.872;4.386;2024-02-21T10:39:41;2.70;;;1.90;;
14472;SDS011;7322;50.872;4.386;2024-02-21T10:42:22;3.73;;;2.20;;
14472;SDS011;7322;50.872;4.386;2024-02-21T10:45:03;4.33;;;2.30;;
14472;SDS011;7322;50.872;4.386;2024-02-21T10:50:28;3.77;;;2.20;;
14472;SDS011;7322;50.872;4.386;2024-02-21T10:56:06;3.47;;;2.10;;
14472;SDS011;7322;50.872;4.386;2024-02-21T11:01:18;2.77;;;2.00;;
14472;SDS011;7322;50.872;4.386;2024-02-21T11:06:35;3.00;;;1.90;;
14472;SDS011;7322;50.872;4.386;2024-02-21T11:09:04;3.00;;;2.00;;
14472;SDS011;7322;50.872;4.386;2024-02-21T11:11:34;3.17;;;1.83;;
14472;SDS011;7322;50.872;4.386;2024-02-21T11:14:06;2.50;;;1.77;;
14472;SDS011;7322;50.872;4.386;2024-02-21T11:16:35;3.67;;;2.10;;
14472;SDS011;7322;50.872;4.386;2024-02-21T11:19:04;3.73;;;1.80;;
14472;SDS011;7322;50.872;4.386;2024-02-21T11:21:36;3.00;;;1.83;;
14472;SDS011;7322;50.872;4.386;2024-02-21T11:24:04;3.10;;;1.93;;
14472;SDS011;7322;50.872;4.386;2024-02-21T11:26:31;2.97;;;1.90;;
14472;SDS011;7322;50.872;4.386;2024-02-21T11:28:59;3.70;;;2.10;;
14472;SDS011;7322;50.872;4.386;2024-02-21T11:31:38;3.77;;;1.90;;
14472;SDS011;7322;50.872;4.386;2024-02-21T11:34:12;3.40;;;1.73;;
14472;SDS011;7322;50.872;4.386;2024-02-21T11:36:48;2.90;;;1.77;;
14472;SDS011;7322;50.872;4.386;2024-02-21T11:39:21;3.47;;;1.83;;
14472;SDS011;7322;50.872;4.386;2024-02-21T11:42:02;3.50;;;1.93;;
14472;SDS011;7322;50.872;4.386;2024-02-21T11:47:07;2.23;;;1.80;;
14472;SDS011;7322;50.872;4.386;2024-02-21T11:49:36;3.30;;;1.90;;
14472;SDS011;7322;50.872;4.386;2024-02-21T11:52:22;4.23;;;1.50;;
14472;SDS011;7322;50.872;4.386;2024-02-21T11:54:52;4.43;;;1.83;;
14472;SDS011;7322;50.872;4.386;2024-02-21T11:57:22;2.70;;;2.00;;
14472;SDS011;7322;50.872;4.386;2024-02-21T11:59:50;3.20;;;1.70;;
14472;SDS011;7322;50.872;4.386;2024-02-21T12:02:20;2.77;;;1.70;;
14472;SDS011;7322;50.872;4.386;2024-02-21T12:04:47;2.33;;;1.63;;
14472;SDS011;7322;50.872;4.386;2024-02-21T12:07:14;2.77;;;1.70;;
14472;SDS011;7322;50.872;4.386;2024-02-21T12:09:44;3.83;;;1.90;;
14472;SDS011;7322;50.872;4.386;2024-02-21T12:12:11;4.07;;;1.90;;
14472;SDS011;7322;50.872;4.386;2024-02-21T12:14:42;5.20;;;1.77;;
14472;SDS011;7322;50.872;4.386;2024-02-21T12:17:09;2.13;;;1.60;;
14472;SDS011;7322;50.872;4.386;2024-02-21T12:19:36;4.27;;;1.90;;
14472;SDS011;7322;50.872;4.386;2024-02-21T12:22:03;2.53;;;1.67;;
14472;SDS011;7322;50.872;4.386;2024-02-21T12:24:33;6.73;;;1.80;;
14472;SDS011;7322;50.872;4.386;2024-02-21T12:27:03;4.77;;;2.10;;
14472;SDS011;7322;50.872;4.386;2024-02-21T12:29:30;3.90;;;1.80;;
14472;SDS011;7322;50.872;4.386;2024-02-21T12:31:57;8.13;;;2.20;;
14472;SDS011;7322;50.872;4.386;2024-02-21T12:34:25;7.73;;;2.03;;
14472;SDS011;7322;50.872;4.386;2024-02-21T12:36:52;5.97;;;2.13;;
14472;SDS011;7322;50.872;4.386;2024-02-21T12:39:19;9.90;;;2.23;;
14472;SDS011;7322;50.872;4.386;2024-02-21T12:41:46;11.10;;;2.10;;
14472;SDS011;7322;50.872;4.386;2024-02-21T12:44:15;10.23;;;2.17;;
14472;SDS011;7322;50.872;4.386;2024-02-21T12:46:43;8.00;;;1.93;;
14472;SDS011;7322;50.872;4.386;2024-02-21T12:49:10;7.50;;;2.40;;
14472;SDS011;7322;50.872;4.386;2024-02-21T12:51:37;7.07;;;2.07;;
14472;SDS011;7322;50.872;4.386;2024-02-21T12:54:05;6.37;;;2.30;;
14472;SDS011;7322;50.872;4.386;2024-02-21T12:56:35;7.53;;;2.10;;
14472;SDS011;7322;50.872;4.386;2024-02-21T12:59:03;4.07;;;1.63;;
14472;SDS011;7322;50.872;4.386;2024-02-21T13:01:34;5.67;;;2.17;;
14472;SDS011;7322;50.872;4.386;2024-02-21T13:04:01;8.63;;;2.50;;
14472;SDS011;7322;50.872;4.386;2024-02-21T13:06:28;4.63;;;1.93;;
14472;SDS011;7322;50.872;4.386;2024-02-21T13:08:56;6.63;;;2.17;;
14472;SDS011;7322;50.872;4.386;2024-02-21T13:11:24;5.17;;;1.70;;
14472;SDS011;7322;50.872;4.386;2024-02-21T13:13:56;6.70;;;2.07;;
14472;SDS011;7322;50.872;4.386;2024-02-21T13:16:23;6.87;;;2.10;;
14472;SDS011;7322;50.872;4.386;2024-02-21T13:18:52;5.33;;;1.90;;
14472;SDS011;7322;50.872;4.386;2024-02-21T13:21:20;6.33;;;2.23;;
14472;SDS011;7322;50.872;4.386;2024-02-21T13:23:47;7.40;;;2.03;;
14472;SDS011;7322;50.872;4.386;2024-02-21T13:26:14;7.80;;;2.13;;
14472;SDS011;7322;50.872;4.386;2024-02-21T13:28:47;4.00;;;2.20;;
14472;SDS011;7322;50.872;4.386;2024-02-21T13:31:17;3.80;;;1.70;;
14472;SDS011;7322;50.872;4.386;2024-02-21T13:33:56;8.53;;;2.13;;
14472;SDS011;7322;50.872;4.386;2024-02-21T13:36:39;4.10;;;1.60;;
14472;SDS011;7322;50.872;4.386;2024-02-21T13:39:07;3.83;;;1.70;;
14472;SDS011;7322;50.872;4.386;2024-02-21T13:44:19;4.97;;;2.00;;
14472;SDS011;7322;50.872;4.386;2024-02-21T13:52:21;3.97;;;1.77;;
14472;SDS011;7322;50.872;4.386;2024-02-21T13:55:01;6.07;;;2.23;;
14472;SDS011;7322;50.872;4.386;2024-02-21T13:57:29;7.37;;;2.10;;
14472;SDS011;7322;50.872;4.386;2024-02-21T14:00:05;3.60;;;1.90;;
14472;SDS011;7322;50.872;4.386;2024-02-21T14:05:22;5.27;;;1.87;;
14472;SDS011;7322;50.872;4.386;2024-02-21T14:07:55;5.93;;;1.87;;
14472;SDS011;7322;50.872;4.386;2024-02-21T14:13:11;4.50;;;2.20;;
14472;SDS011;7322;50.872;4.386;2024-02-21T14:15:44;6.23;;;2.33;;
14472;SDS011;7322;50.872;4.386;2024-02-21T14:21:11;4.70;;;1.87;;
14472;SDS011;7322;50.872;4.386;2024-02-21T14:23:43;5.37;;;1.67;;
14472;SDS011;7322;50.872;4.386;2024-02-21T14:29:09;6.97;;;1.80;;
14472;SDS011;7322;50.872;4.386;2024-02-21T14:31:36;4.07;;;1.80;;
14472;SDS011;7322;50.872;4.386;2024-02-21T14:34:03;4.67;;;1.93;;
14472;SDS011;7322;50.872;4.386;2024-02-21T14:36:34;3.47;;;1.43;;
14472;SDS011;7322;50.872;4.386;2024-02-21T14:39:01;6.63;;;2.30;;
14472;SDS011;7322;50.872;4.386;2024-02-21T14:41:29;10.17;;;1.83;;
14472;SDS011;7322;50.872;4.386;2024-02-21T14:43:57;4.80;;;1.57;;
14472;SDS011;7322;50.872;4.386;2024-02-21T14:46:25;6.57;;;1.97;;
14472;SDS011;7322;50.872;4.386;2024-02-21T14:48:54;7.10;;;2.10;;
14472;SDS011;7322;50.872;4.386;2024-02-21T14:51:21;10.00;;;2.20;;
14472;SDS011;7322;50.872;4.386;2024-02-21T14:53:49;8.60;;;2.10;;
14472;SDS011;7322;50.872;4.386;2024-02-21T14:56:16;7.90;;;2.07;;
14472;SDS011;7322;50.872;4.386;2024-02-21T14:58:43;6.70;;;1.90;;
14472;SDS011;7322;50.872;4.386;2024-02-21T15:01:12;4.83;;;2.10;;
14472;SDS011;7322;50.872;4.386;2024-02-21T15:03:39;9.07;;;2.20;;
14472;SDS011;7322;50.872;4.386;2024-02-21T15:06:07;6.27;;;2.00;;
14472;SDS011;7322;50.872;4.386;2024-02-21T15:08:35;9.63;;;1.97;;
14472;SDS011;7322;50.872;4.386;2024-02-21T15:11:03;7.37;;;2.17;;
14472;SDS011;7322;50.872;4.386;2024-02-21T15:13:36;6.43;;;1.97;;
14472;SDS011;7322;50.872;4.386;2024-02-21T15:16:13;9.33;;;2.10;;
14472;SDS011;7322;50.872;4.386;2024-02-21T15:18:56;8.80;;;2.10;;
14472;SDS011;7322;50.872;4.386;2024-02-21T15:21:23;10.37;;;2.63;;
14472;SDS011;7322;50.872;4.386;2024-02-21T15:23:50;12.63;;;2.40;;
14472;SDS011;7322;50.872;4.386;2024-02-21T15:26:19;9.80;;;2.77;;
14472;SDS011;7322;50.872;4.386;2024-02-21T15:28:48;10.40;;;2.47;;
14472;SDS011;7322;50.872;4.386;2024-02-21T15:31:23;9.83;;;2.67;;
14472;SDS011;7322;50.872;4.386;2024-02-21T15:33:51;14.17;;;2.60;;
14472;SDS011;7322;50.872;4.386;2024-02-21T15:36:20;8.63;;;2.33;;
14472;SDS011;7322;50.872;4.386;2024-02-21T15:38:47;7.77;;;2.17;;
14472;SDS011;7322;50.872;4.386;2024-02-21T15:41:14;8.30;;;2.20;;
14472;SDS011;7322;50.872;4.386;2024-02-21T15:43:43;12.60;;;2.50;;
14472;SDS011;7322;50.872;4.386;2024-02-21T15:46:10;9.23;;;2.27;;
14472;SDS011;7322;50.872;4.386;2024-02-21T15:48:38;13.03;;;2.20;;
14472;SDS011;7322;50.872;4.386;2024-02-21T15:51:05;8.07;;;2.23;;
14472;SDS011;7322;50.872;4.386;2024-02-21T15:53:32;10.57;;;2.20;;
14472;SDS011;7322;50.872;4.386;2024-02-21T15:56:00;7.63;;;2.00;;
14472;SDS011;7322;50.872;4.386;2024-02-21T15:58:28;8.10;;;2.50;;
14472;SDS011;7322;50.872;4.386;2024-02-21T16:00:58;7.17;;;1.90;;
14472;SDS011;7322;50.872;4.386;2024-02-21T16:03:25;9.70;;;2.30;;
14472;SDS011;7322;50.872;4.386;2024-02-21T16:05:52;9.93;;;2.40;;
14472;SDS011;7322;50.872;4.386;2024-02-21T16:08:19;9.17;;;2.23;;
14472;SDS011;7322;50.872;4.386;2024-02-21T16:10:46;9.33;;;2.37;;
14472;SDS011;7322;50.872;4.386;2024-02-21T16:13:13;8.63;;;2.50;;